Terminal Aerodrome Forecast
Issued by NWS Milwaukee/Sullivan, WI

Home | Current Version | Previous Version | Text Only | Print | Product List | Glossary On
Versions: 1 2 3 4 5 6 7 8 9 10 11 12 13 14 15 16 17 18 19 20 21 22 23 24 25 26 27 28 29 30 31 32 33 34 35 36 37 38 39 40 41 42 43 44 45 46 47 48
000
FTUS43 KMKX 250255 AAA
TAFMKE
TAF AMD
KMKE 250255Z 2503/2606 27009KT P6SM BKN080
     FM250400 29009KT P6SM -SHRA SCT020 BKN060
     FM250600 30010G18KT P6SM SCT070 BKN090
     FM251200 30009G18KT P6SM BKN030 BKN200
     FM251700 31012G21KT P6SM SCT030=

USA.gov is the U.S. government's official web portal to all federal, state and local government web resources and services.